Time;durP1;ratioP1;P1;durP2;ratioP2;P2;SDS_P1;SDS_P2;PMS_P1;PMS_P2;Temp;Humidity;BMP_temperature;BMP_pressure;BME280_temperature;BME280_humidity;BME280_pressure;Samples;Min_cycle;Max_cycle;Signal;HPM_P1;HPM_P2
2022/06/23 00:00:22;;;;;;;9.40;5.37;;;19.00;92.70;;;;;;5031996;28;20462;-52
2022/06/23 00:02:51;;;;;;;8.13;5.27;;;19.00;92.90;;;;;;5033375;28;20435;-52
2022/06/23 00:05:21;;;;;;;7.77;5.23;;;18.80;92.90;;;;;;5032926;28;20446;-53
2022/06/23 00:07:52;;;;;;;5.20;4.70;;;18.80;92.80;;;;;;5033126;28;20474;-52
2022/06/23 00:10:22;;;;;;;8.50;5.23;;;18.80;93.00;;;;;;5032663;28;20438;-52
2022/06/23 00:12:49;;;;;;;9.13;4.90;;;18.80;93.00;;;;;;5031580;28;20922;-52
2022/06/23 00:15:21;;;;;;;8.50;4.93;;;18.70;93.00;;;;;;5032586;28;20947;-52
2022/06/23 00:17:58;;;;;;;5.30;4.80;;;18.80;93.10;;;;;;5032485;28;20479;-52
2022/06/23 00:20:29;;;;;;;8.10;5.97;;;18.80;93.30;;;;;;5032065;28;20513;-51
2022/06/23 00:23:02;;;;;;;5.97;5.40;;;18.70;93.30;;;;;;5032426;28;20935;-53
2022/06/23 00:25:40;;;;;;;7.17;5.30;;;18.70;93.40;;;;;;5032281;28;20430;-51
2022/06/23 00:28:15;;;;;;;6.90;5.37;;;18.70;93.50;;;;;;5032538;28;20492;-52
2022/06/23 00:30:43;;;;;;;7.40;5.70;;;18.60;93.50;;;;;;5032050;28;20441;-52
2022/06/23 00:33:18;;;;;;;10.47;5.47;;;18.40;93.80;;;;;;5032181;28;20442;-52
2022/06/23 00:35:45;;;;;;;8.13;5.33;;;18.80;93.80;;;;;;5032281;28;20469;-51
2022/06/23 00:38:28;;;;;;;6.30;5.30;;;18.80;93.80;;;;;;5032178;28;20768;-52
2022/06/23 00:40:56;;;;;;;10.97;6.00;;;18.60;93.90;;;;;;5032107;28;20462;-51
2022/06/23 00:43:23;;;;;;;6.80;5.37;;;18.50;93.80;;;;;;5032163;28;20965;-51
2022/06/23 00:45:56;;;;;;;13.20;5.57;;;18.30;93.80;;;;;;5032680;28;20833;-51
2022/06/23 00:48:31;;;;;;;10.63;5.70;;;18.50;94.10;;;;;;5031488;28;20481;-51
2022/06/23 00:51:05;;;;;;;9.07;5.70;;;18.20;94.00;;;;;;5032039;28;20902;-51
2022/06/23 00:53:38;;;;;;;7.67;6.17;;;18.30;94.00;;;;;;5031993;28;20858;-50
2022/06/23 00:56:19;;;;;;;7.77;5.50;;;18.40;94.10;;;;;;5031975;28;20545;-51
2022/06/23 00:58:50;;;;;;;8.37;6.00;;;18.40;94.20;;;;;;5031409;28;20438;-52
2022/06/23 01:01:32;;;;;;;6.93;6.23;;;18.50;94.40;;;;;;5031684;28;20433;-51
2022/06/23 01:04:04;;;;;;;6.10;5.13;;;18.60;94.40;;;;;;5031932;28;20434;-52
2022/06/23 01:06:37;;;;;;;7.60;5.20;;;18.30;94.30;;;;;;5031804;28;20446;-52
2022/06/23 01:09:15;;;;;;;7.33;5.70;;;18.40;94.50;;;;;;5031304;28;20477;-52
2022/06/23 01:11:48;;;;;;;6.33;5.27;;;17.90;94.30;;;;;;5031838;28;20487;-52
2022/06/23 01:14:25;;;;;;;13.47;5.80;;;18.10;94.50;;;;;;5031772;28;20438;-52
2022/06/23 01:16:54;;;;;;;6.43;4.30;;;18.30;94.60;;;;;;5031505;28;20458;-51
2022/06/23 01:20:07;;;;;;;9.57;6.20;;;18.10;94.40;;;;;;5031344;28;20440;-52
2022/06/23 01:23:03;;;;;;;12.73;5.30;;;18.30;94.50;;;;;;5031578;28;20452;-51
2022/06/23 01:25:47;;;;;;;8.10;5.30;;;18.30;94.40;;;;;;5031017;28;20953;-52
2022/06/23 01:28:18;;;;;;;11.30;4.70;;;18.20;94.20;;;;;;5031301;28;20488;-51
2022/06/23 01:30:50;;;;;;;8.63;5.67;;;18.20;94.20;;;;;;5031044;28;20428;-51
2022/06/23 01:33:23;;;;;;;7.03;4.60;;;18.20;94.10;;;;;;5031498;28;20442;-51
2022/06/23 01:35:58;;;;;;;6.73;5.03;;;18.10;94.10;;;;;;5031361;28;20456;-51
2022/06/23 01:38:28;;;;;;;5.90;4.30;;;18.50;94.20;;;;;;5031048;28;20433;-50
2022/06/23 01:40:59;;;;;;;6.23;5.07;;;18.20;94.10;;;;;;5031349;28;20438;-51
2022/06/23 01:43:36;;;;;;;10.37;5.30;;;18.20;94.10;;;;;;5031339;28;20494;-51
2022/06/23 01:46:09;;;;;;;7.67;5.50;;;18.20;94.20;;;;;;5031041;28;20968;-51
2022/06/23 01:48:53;;;;;;;8.73;5.17;;;18.20;94.20;;;;;;5030870;28;20471;-52
2022/06/23 01:51:23;;;;;;;8.90;5.40;;;18.10;94.10;;;;;;5031313;28;20456;-52
2022/06/23 01:53:52;;;;;;;7.33;4.43;;;18.20;94.10;;;;;;5029870;28;20462;-52
2022/06/23 01:56:30;;;;;;;6.87;5.30;;;18.10;94.10;;;;;;5029927;28;20473;-52
2022/06/23 01:59:05;;;;;;;6.53;5.03;;;18.20;94.20;;;;;;5030886;28;20861;-51
2022/06/23 02:01:41;;;;;;;7.63;6.00;;;18.30;94.30;;;;;;5031164;28;20449;-52
2022/06/23 02:04:14;;;;;;;7.93;5.67;;;17.70;94.20;;;;;;5031409;28;20447;-52
2022/06/23 02:06:46;;;;;;;7.53;6.40;;;18.00;94.70;;;;;;5031168;28;20455;-52
2022/06/23 02:09:20;;;;;;;7.73;7.00;;;18.00;95.20;;;;;;5030806;28;20475;-52
2022/06/23 02:11:49;;;;;;;9.03;6.50;;;17.90;95.10;;;;;;5031277;28;20429;-52
2022/06/23 02:14:40;;;;;;;7.57;5.90;;;17.90;95.50;;;;;;5031286;28;20441;-52
2022/06/23 02:17:16;;;;;;;9.90;7.00;;;17.50;95.50;;;;;;5031378;28;20452;-54
2022/06/23 02:19:47;;;;;;;12.10;6.53;;;17.70;95.80;;;;;;5031975;28;20775;-52
2022/06/23 02:22:21;;;;;;;9.13;6.50;;;17.70;96.00;;;;;;5032313;28;20440;-52
2022/06/23 02:24:55;;;;;;;7.47;6.10;;;17.50;96.00;;;;;;5031080;28;20947;-52
2022/06/23 02:27:28;;;;;;;7.50;6.67;;;17.70;96.50;;;;;;5030860;28;20541;-52
2022/06/23 02:30:00;;;;;;;14.50;7.40;;;17.60;96.50;;;;;;5030578;28;20981;-53
2022/06/23 02:32:41;;;;;;;9.90;6.80;;;17.40;96.70;;;;;;5030947;28;20447;-52
2022/06/23 02:35:14;;;;;;;9.23;6.67;;;17.50;97.00;;;;;;5031107;28;20990;-53
2022/06/23 02:37:58;;;;;;;9.83;7.47;;;17.90;97.30;;;;;;5038998;28;20830;-52
2022/06/23 02:40:35;;;;;;;8.00;6.83;;;17.10;97.10;;;;;;5034111;28;20432;-51
2022/06/23 02:43:11;;;;;;;6.73;6.13;;;17.40;97.30;;;;;;5033047;28;20694;-52
2022/06/23 02:46:15;;;;;;;10.60;7.17;;;17.20;97.30;;;;;;5034053;28;20765;-52
2022/06/23 02:49:03;;;;;;;10.90;7.93;;;17.30;97.50;;;;;;5033991;28;20483;-52
2022/06/23 02:51:50;;;;;;;7.57;6.70;;;17.30;97.70;;;;;;5034134;28;20446;-52
2022/06/23 02:54:34;;;;;;;7.53;6.73;;;17.30;97.60;;;;;;5034374;28;20446;-51
2022/06/23 02:57:30;;;;;;;10.77;7.47;;;17.30;97.70;;;;;;5034387;28;20458;-52
2022/06/23 03:00:01;;;;;;;9.73;6.77;;;17.10;97.50;;;;;;5034744;28;20447;-52
2022/06/23 03:02:35;;;;;;;9.93;7.00;;;17.20;97.60;;;;;;5032656;28;20449;-52
2022/06/23 03:05:07;;;;;;;10.27;8.00;;;17.30;97.70;;;;;;5034100;28;20440;-52
2022/06/23 03:07:41;;;;;;;8.30;6.90;;;17.00;97.70;;;;;;5034593;28;20459;-52
2022/06/23 03:10:13;;;;;;;11.40;7.00;;;17.40;97.90;;;;;;5033366;28;20471;-52
2022/06/23 03:12:44;;;;;;;11.23;6.63;;;17.30;97.90;;;;;;5034207;28;20443;-52
2022/06/23 03:15:16;;;;;;;8.90;6.70;;;17.30;97.90;;;;;;5033969;28;20803;-52
2022/06/23 03:17:49;;;;;;;9.03;7.17;;;17.40;98.00;;;;;;5033772;28;20455;-52
2022/06/23 03:20:33;;;;;;;8.27;6.33;;;17.40;98.20;;;;;;5033307;28;20439;-52
2022/06/23 03:23:04;;;;;;;9.00;7.30;;;17.30;98.10;;;;;;5032808;28;20448;-52
2022/06/23 03:25:36;;;;;;;7.53;6.83;;;17.20;98.10;;;;;;5033739;28;20444;-52
2022/06/23 03:28:10;;;;;;;9.77;6.40;;;17.20;98.10;;;;;;5033510;28;20437;-52
2022/06/23 03:30:41;;;;;;;11.13;6.90;;;17.30;98.10;;;;;;5033001;28;20827;-52
2022/06/23 03:33:18;;;;;;;9.50;6.77;;;17.20;98.10;;;;;;5033615;28;20433;-52
2022/06/23 03:35:49;;;;;;;10.90;6.80;;;17.30;98.20;;;;;;5033493;28;20452;-52
2022/06/23 03:41:36;;;;;;;7.20;6.40;;;16.90;98.00;;;;;;5033339;28;20445;-52
2022/06/23 03:44:02;;;;;;;8.33;7.00;;;17.00;98.10;;;;;;5033176;28;20651;-52
2022/06/23 03:46:34;;;;;;;9.73;6.40;;;17.80;98.30;;;;;;5033215;28;20464;-52
2022/06/23 03:49:13;;;;;;;10.17;7.07;;;17.40;98.10;;;;;;5031678;28;20981;-51
2022/06/23 03:51:47;;;;;;;8.43;6.10;;;17.40;98.00;;;;;;5031857;28;20542;-52
2022/06/23 03:54:17;;;;;;;5.67;5.10;;;17.60;97.90;;;;;;5033162;28;20487;-51
2022/06/23 03:56:47;;;;;;;8.13;7.00;;;17.50;97.70;;;;;;5032792;28;20453;-52
2022/06/23 03:59:18;;;;;;;7.40;6.70;;;18.10;97.90;;;;;;5032454;28;20820;-51
2022/06/23 04:01:51;;;;;;;8.90;6.13;;;17.60;97.60;;;;;;5032855;28;20428;-51
2022/06/23 04:04:21;;;;;;;7.20;6.47;;;17.70;97.60;;;;;;5032603;28;20437;-52
2022/06/23 04:06:49;;;;;;;9.37;5.47;;;17.50;97.40;;;;;;5032879;28;20471;-51
2022/06/23 04:09:19;;;;;;;7.63;6.53;;;17.80;97.30;;;;;;5032195;28;20481;-54
2022/06/23 04:11:52;;;;;;;8.87;5.70;;;17.90;97.10;;;;;;5032845;28;20769;-51
2022/06/23 04:14:38;;;;;;;8.93;5.80;;;18.30;96.80;;;;;;5032783;28;20438;-52
2022/06/23 04:17:14;;;;;;;7.77;5.47;;;18.00;96.10;;;;;;5032500;28;20983;-52
2022/06/23 04:19:46;;;;;;;8.13;5.80;;;18.10;95.90;;;;;;5032223;28;20441;-51
2022/06/23 04:22:19;;;;;;;7.00;5.10;;;18.50;95.80;;;;;;5032572;28;20428;-52
2022/06/23 04:24:51;;;;;;;7.03;5.70;;;18.80;95.40;;;;;;5032820;28;20448;-52
2022/06/23 04:27:23;;;;;;;10.00;5.53;;;18.70;95.10;;;;;;5032513;28;20950;-53
2022/06/23 04:29:52;;;;;;;7.73;5.10;;;18.60;94.50;;;;;;5031894;28;20482;-52
2022/06/23 04:32:24;;;;;;;7.20;4.87;;;18.90;94.40;;;;;;5032296;28;20468;-52
2022/06/23 04:34:55;;;;;;;6.80;4.80;;;18.90;93.90;;;;;;5032170;28;20453;-52
2022/06/23 04:37:29;;;;;;;7.00;5.50;;;19.10;93.60;;;;;;5032036;28;20458;-50
2022/06/23 04:40:05;;;;;;;9.23;5.40;;;19.10;93.40;;;;;;5031541;28;20437;-51
2022/06/23 04:42:33;;;;;;;6.30;4.80;;;19.40;93.10;;;;;;5031915;28;20453;-51
2022/06/23 04:45:28;;;;;;;7.30;4.70;;;19.50;92.70;;;;;;5032057;28;20443;-50
2022/06/23 04:47:58;;;;;;;7.30;5.30;;;19.70;92.30;;;;;;5031818;28;20439;-51
2022/06/23 04:50:40;;;;;;;7.23;5.50;;;20.00;92.40;;;;;;5031742;28;21038;-51
2022/06/23 04:53:16;;;;;;;6.57;4.90;;;19.90;92.10;;;;;;5031732;28;20541;-51
2022/06/23 04:55:43;;;;;;;8.50;5.10;;;19.40;91.80;;;;;;5031599;28;20458;-51
2022/06/23 04:58:20;;;;;;;9.53;5.03;;;19.90;91.90;;;;;;5031466;28;20441;-51
2022/06/23 05:00:49;;;;;;;9.07;5.23;;;19.80;91.60;;;;;;5031318;28;20431;-51
2022/06/23 05:03:21;;;;;;;8.03;5.17;;;19.90;91.50;;;;;;5031711;28;20443;-52
2022/06/23 05:05:57;;;;;;;7.43;4.70;;;19.80;91.20;;;;;;5031789;28;20455;-51
2022/06/23 05:08:28;;;;;;;6.90;4.93;;;20.10;91.10;;;;;;5031152;28;20943;-51
2022/06/23 05:11:00;;;;;;;7.53;4.63;;;20.30;90.90;;;;;;5031234;28;20483;-51
2022/06/23 05:13:38;;;;;;;11.73;5.20;;;20.30;90.50;;;;;;5031719;28;20442;-51
2022/06/23 05:16:10;;;;;;;5.73;4.87;;;20.60;90.30;;;;;;5031206;28;20808;-51
2022/06/23 05:18:42;;;;;;;6.30;4.50;;;20.50;90.00;;;;;;5030941;28;20940;-52
2022/06/23 05:21:17;;;;;;;5.83;3.93;;;20.50;89.60;;;;;;5031094;28;20432;-52
2022/06/23 05:23:49;;;;;;;12.83;5.70;;;20.60;88.30;;;;;;5030668;28;20507;-52
2022/06/23 05:26:24;;;;;;;4.97;4.47;;;20.80;87.80;;;;;;5030415;28;20451;-52
2022/06/23 05:28:57;;;;;;;5.57;4.00;;;20.80;87.70;;;;;;5030737;28;20443;-52
2022/06/23 05:31:28;;;;;;;6.30;4.10;;;21.00;87.40;;;;;;5030932;28;20471;-52
2022/06/23 05:34:00;;;;;;;7.83;4.67;;;21.20;87.30;;;;;;5030993;28;20434;-52
2022/06/23 05:36:33;;;;;;;5.07;3.83;;;21.20;86.80;;;;;;5030907;28;20460;-52
2022/06/23 05:39:05;;;;;;;8.63;4.40;;;21.20;86.40;;;;;;5030508;28;20445;-52
2022/06/23 05:41:36;;;;;;;5.67;4.07;;;21.30;85.90;;;;;;5031095;28;20433;-52
2022/06/23 05:44:05;;;;;;;8.47;3.67;;;21.40;85.50;;;;;;5030438;28;20858;-52
2022/06/23 05:46:33;;;;;;;5.50;3.87;;;21.50;85.00;;;;;;5030489;28;20474;-51
2022/06/23 05:49:02;;;;;;;9.00;4.20;;;21.60;84.50;;;;;;5030575;28;20449;-53
2022/06/23 05:51:38;;;;;;;4.43;3.50;;;21.60;84.20;;;;;;5030827;28;20433;-53
2022/06/23 05:54:11;;;;;;;6.13;3.70;;;21.80;83.60;;;;;;5030709;28;20441;-52
2022/06/23 05:56:42;;;;;;;5.00;4.50;;;21.80;82.90;;;;;;5030250;28;20475;-52
2022/06/23 05:59:15;;;;;;;3.83;3.23;;;22.00;82.80;;;;;;5030653;28;20442;-52
2022/06/23 06:01:46;;;;;;;5.67;3.83;;;21.60;81.60;;;;;;5030585;28;20496;-52
2022/06/23 06:04:19;;;;;;;7.90;3.77;;;22.00;82.20;;;;;;5030571;28;20439;-52
2022/06/23 06:06:47;;;;;;;6.07;3.60;;;22.10;82.00;;;;;;5030453;28;20804;-53
2022/06/23 06:12:04;;;;;;;8.30;3.53;;;22.30;81.20;;;;;;5034641;28;20437;-53
2022/06/23 06:14:34;;;;;;;5.93;4.00;;;22.30;80.80;;;;;;5034500;28;21003;-52
2022/06/23 06:17:02;;;;;;;5.40;3.40;;;22.50;80.40;;;;;;5033871;28;20485;-53
2022/06/23 06:19:32;;;;;;;6.50;3.50;;;22.60;80.00;;;;;;5033972;28;20447;-52
2022/06/23 06:22:21;;;;;;;5.20;3.43;;;22.60;79.50;;;;;;5034375;28;20450;-52
2022/06/23 06:24:54;;;;;;;7.17;3.50;;;22.60;79.20;;;;;;5034304;28;20529;-52
2022/06/23 06:27:20;;;;;;;6.80;3.73;;;22.50;79.20;;;;;;5034353;28;20915;-52
2022/06/23 06:29:48;;;;;;;6.60;3.70;;;22.60;79.10;;;;;;5033513;28;20478;-52
2022/06/23 06:32:27;;;;;;;6.30;3.77;;;22.60;79.00;;;;;;5033959;28;20875;-52
2022/06/23 06:34:59;;;;;;;9.07;4.13;;;22.70;78.70;;;;;;5033527;28;20472;-52
2022/06/23 06:37:33;;;;;;;4.97;3.60;;;22.70;78.60;;;;;;5033701;28;20463;-52
2022/06/23 06:40:03;;;;;;;5.27;3.90;;;22.70;79.00;;;;;;5033857;28;20443;-52
2022/06/23 06:42:33;;;;;;;5.87;3.50;;;22.80;79.00;;;;;;5033775;28;20494;-52
2022/06/23 06:45:08;;;;;;;4.33;3.20;;;22.90;78.50;;;;;;5032532;28;20651;-52
2022/06/23 06:47:37;;;;;;;5.53;3.30;;;23.00;78.30;;;;;;5034394;28;20467;-52
2022/06/23 06:50:17;;;;;;;5.40;3.40;;;22.90;78.20;;;;;;5033385;28;20972;-51
2022/06/23 06:52:45;;;;;;;7.37;3.73;;;22.90;79.50;;;;;;5033911;28;20424;-51
2022/06/23 06:55:18;;;;;;;5.23;3.47;;;22.80;78.80;;;;;;5033556;28;20767;-51
2022/06/23 06:57:51;;;;;;;7.37;3.90;;;22.60;78.50;;;;;;5032556;28;20848;-50
2022/06/23 07:00:24;;;;;;;8.57;3.90;;;22.90;78.60;;;;;;5033551;28;20428;-51
2022/06/23 07:02:55;;;;;;;4.60;3.70;;;23.00;78.70;;;;;;5033614;28;20419;-51
2022/06/23 07:05:29;;;;;;;5.00;3.50;;;23.00;78.60;;;;;;5033198;28;20438;-51
2022/06/23 07:08:02;;;;;;;6.30;3.33;;;23.00;78.50;;;;;;5033566;28;20434;-50
2022/06/23 07:10:33;;;;;;;7.80;3.87;;;23.10;78.00;;;;;;5033132;28;20910;-51
2022/06/23 07:13:06;;;;;;;5.43;3.20;;;23.00;77.70;;;;;;5032689;28;20432;-52
2022/06/23 07:15:37;;;;;;;4.20;3.43;;;22.70;77.30;;;;;;5033182;28;20811;-53
2022/06/23 07:18:14;;;;;;;6.10;3.77;;;22.90;77.90;;;;;;5033304;28;20507;-51
2022/06/23 07:20:45;;;;;;;3.93;3.17;;;23.00;77.90;;;;;;5033648;28;20433;-50
2022/06/23 07:23:18;;;;;;;6.53;2.80;;;22.90;77.70;;;;;;5032677;28;20437;-52
2022/06/23 07:25:50;;;;;;;4.63;3.53;;;23.10;77.50;;;;;;5032708;28;20467;-52
2022/06/23 07:28:23;;;;;;;4.10;3.10;;;23.20;77.30;;;;;;5032897;28;20427;-52
2022/06/23 07:30:56;;;;;;;4.20;3.00;;;23.30;77.00;;;;;;5032944;28;20485;-52
2022/06/23 07:33:26;;;;;;;4.90;3.20;;;22.90;76.00;;;;;;5033208;28;20425;-52
2022/06/23 07:35:58;;;;;;;5.00;3.37;;;23.30;76.10;;;;;;5032563;28;20463;-50
2022/06/23 07:38:30;;;;;;;6.67;3.37;;;23.00;75.60;;;;;;5032682;28;20437;-51
2022/06/23 07:41:01;;;;;;;9.40;3.70;;;23.40;75.70;;;;;;5032872;28;20686;-51
2022/06/23 07:43:32;;;;;;;6.27;3.23;;;23.40;75.40;;;;;;5032613;28;20598;-51
2022/06/23 07:46:00;;;;;;;4.60;3.20;;;23.50;75.60;;;;;;5031018;28;20491;-51
2022/06/23 07:48:31;;;;;;;6.27;3.60;;;23.50;75.70;;;;;;5030852;28;21042;-51
2022/06/23 07:50:58;;;;;;;6.53;3.00;;;23.60;75.50;;;;;;5032664;28;20477;-51
2022/06/23 07:53:29;;;;;;;4.87;3.53;;;23.60;75.00;;;;;;5031488;28;20430;-51
2022/06/23 07:55:56;;;;;;;3.90;3.03;;;23.60;74.50;;;;;;5032432;28;20464;-51
2022/06/23 07:58:26;;;;;;;5.80;4.37;;;23.60;74.80;;;;;;5032515;28;20926;-51
2022/06/23 08:00:57;;;;;;;4.47;2.83;;;23.60;75.10;;;;;;5032277;28;20490;-51
2022/06/23 08:03:33;;;;;;;5.53;4.00;;;23.60;75.10;;;;;;5032300;28;20929;-50
2022/06/23 08:06:03;;;;;;;3.57;2.97;;;23.60;75.10;;;;;;5032639;28;20464;-51
2022/06/23 08:08:35;;;;;;;5.60;3.00;;;23.60;74.70;;;;;;5031445;28;20935;-50
2022/06/23 08:13:56;;;;;;;7.30;2.90;;;23.60;75.00;;;;;;5032326;28;20420;-50
2022/06/23 08:19:14;;;;;;;4.30;3.33;;;23.70;75.60;;;;;;5031947;28;20926;-51
2022/06/23 08:21:47;;;;;;;4.30;3.53;;;23.80;75.70;;;;;;5032384;28;20437;-51
2022/06/23 08:24:18;;;;;;;6.50;3.70;;;23.90;75.40;;;;;;5032092;28;20451;-51
2022/06/23 08:26:51;;;;;;;5.00;3.30;;;23.90;75.00;;;;;;5032194;28;20456;-52
2022/06/23 08:29:24;;;;;;;4.43;3.13;;;23.90;74.50;;;;;;5031976;28;20433;-50
2022/06/23 08:31:50;;;;;;;4.73;3.00;;;24.00;73.40;;;;;;5031484;28;20481;-52
2022/06/23 08:34:17;;;;;;;5.80;3.23;;;23.80;73.40;;;;;;5071849;28;20501;-51
2022/06/23 08:36:47;;;;;;;4.90;3.17;;;24.00;73.10;;;;;;5091553;28;20803;-52
2022/06/23 08:39:21;;;;;;;11.20;2.93;;;24.10;73.00;;;;;;5091267;28;20438;-51
2022/06/23 08:41:56;;;;;;;7.80;3.70;;;24.10;71.90;;;;;;5091460;28;20447;-51
2022/06/23 08:44:32;;;;;;;3.70;3.03;;;24.10;71.60;;;;;;5091644;28;20440;-52
2022/06/23 08:47:05;;;;;;;5.60;2.30;;;24.10;70.90;;;;;;5091024;28;20474;-51
2022/06/23 08:49:37;;;;;;;3.00;2.70;;;24.10;70.10;;;;;;5091776;28;20449;-51
2022/06/23 08:52:11;;;;;;;6.60;2.83;;;24.20;69.60;;;;;;5087701;28;21029;-54
2022/06/23 08:54:44;;;;;;;7.40;2.80;;;24.20;69.30;;;;;;5076012;28;20451;-53
2022/06/23 08:57:17;;;;;;;10.57;3.10;;;24.30;69.20;;;;;;5092665;28;20468;-54
2022/06/23 08:59:48;;;;;;;4.43;2.77;;;24.30;69.70;;;;;;5090826;28;20436;-53
2022/06/23 09:02:20;;;;;;;5.07;3.23;;;24.30;69.90;;;;;;5091583;28;20448;-53
2022/06/23 09:04:54;;;;;;;5.67;2.73;;;24.40;69.60;;;;;;5091637;28;20442;-53
2022/06/23 09:07:33;;;;;;;6.93;2.70;;;24.40;69.30;;;;;;5089885;28;20491;-53
2022/06/23 09:10:13;;;;;;;5.30;3.00;;;24.50;69.00;;;;;;5088095;28;20880;-53
2022/06/23 09:12:47;;;;;;;3.90;2.53;;;24.50;68.60;;;;;;5080439;28;20451;-52
2022/06/23 09:15:29;;;;;;;3.77;2.10;;;24.50;68.80;;;;;;5078688;28;20983;-53
2022/06/23 09:18:29;;;;;;;4.33;2.67;;;24.50;65.80;;;;;;5091485;28;20456;-53
2022/06/23 09:21:11;;;;;;;2.87;2.07;;;24.60;65.80;;;;;;5047288;28;20448;-53
2022/06/23 09:23:58;;;;;;;5.43;2.43;;;24.80;65.70;;;;;;5090620;28;20452;-52
2022/06/23 09:26:37;;;;;;;5.63;2.33;;;24.70;64.90;;;;;;5076083;28;20464;-52
2022/06/23 09:29:14;;;;;;;3.50;2.43;;;24.70;64.80;;;;;;5090586;28;20786;-52
2022/06/23 09:31:55;;;;;;;4.00;2.70;;;24.70;64.80;;;;;;5077447;28;20488;-52
2022/06/23 09:34:43;;;;;;;5.27;2.80;;;24.70;64.60;;;;;;5090963;28;20442;-52
2022/06/23 09:37:49;;;;;;;3.90;2.33;;;24.80;64.10;;;;;;5077833;28;20464;-52
2022/06/23 09:40:33;;;;;;;5.10;2.90;;;24.80;64.30;;;;;;5080906;28;20456;-52
2022/06/23 09:43:38;;;;;;;6.33;3.37;;;24.80;63.40;;;;;;5071933;28;20896;-51
2022/06/23 09:46:23;;;;;;;6.60;3.60;;;24.80;63.00;;;;;;5074393;28;20493;-51
2022/06/23 09:49:07;;;;;;;3.97;2.27;;;24.90;63.40;;;;;;5070931;28;20458;-52
2022/06/23 09:51:59;;;;;;;6.27;2.60;;;24.90;62.80;;;;;;5084153;28;20484;-51
2022/06/23 09:54:39;;;;;;;5.80;2.73;;;25.00;62.70;;;;;;5094527;28;20433;-53
2022/06/23 09:57:36;;;;;;;5.77;2.33;;;25.00;62.20;;;;;;5073957;28;20482;-53
2022/06/23 10:00:07;;;;;;;3.00;2.47;;;25.00;61.40;;;;;;5075945;28;20444;-53
2022/06/23 10:02:49;;;;;;;2.63;2.10;;;25.10;61.60;;;;;;5093993;28;20428;-51
2022/06/23 10:05:32;;;;;;;3.13;2.33;;;25.10;61.50;;;;;;5093581;28;20503;-51
2022/06/23 10:08:18;;;;;;;7.70;2.80;;;25.10;61.10;;;;;;5073879;28;20777;-49
2022/06/23 10:11:36;;;;;;;2.83;1.90;;;25.20;59.70;;;;;;5073993;28;20477;-50
2022/06/23 10:14:19;;;;;;;2.73;2.20;;;25.20;58.70;;;;;;5000672;28;20460;-50
2022/06/23 10:17:02;;;;;;;4.30;2.50;;;25.30;58.80;;;;;;5010997;28;20460;-50
2022/06/23 10:19:49;;;;;;;4.50;2.60;;;25.30;58.60;;;;;;5054959;28;20450;-50
2022/06/23 10:22:31;;;;;;;4.37;2.67;;;25.40;58.50;;;;;;5072936;28;20433;-50
2022/06/23 10:25:19;;;;;;;6.03;2.43;;;25.40;58.30;;;;;;5090579;28;20452;-51
2022/06/23 10:28:05;;;;;;;3.30;2.23;;;25.50;58.30;;;;;;5094181;28;20448;-51
2022/06/23 10:30:41;;;;;;;4.20;2.37;;;25.50;57.90;;;;;;5092683;28;21000;-51
2022/06/23 10:33:43;;;;;;;6.80;2.33;;;25.50;57.30;;;;;;5081640;28;20464;-51
2022/06/23 10:36:27;;;;;;;6.17;2.30;;;25.50;56.60;;;;;;5093570;28;20456;-51
2022/06/23 10:39:01;;;;;;;4.97;2.40;;;25.50;56.90;;;;;;5093003;28;20490;-51
2022/06/23 10:41:45;;;;;;;5.33;2.00;;;25.60;56.60;;;;;;5075352;28;20444;-52
2022/06/23 10:44:34;;;;;;;2.63;2.20;;;25.70;56.20;;;;;;5074899;28;20452;-50
2022/06/23 10:47:15;;;;;;;2.90;2.17;;;25.60;55.20;;;;;;5093651;28;20870;-50
2022/06/23 10:49:56;;;;;;;3.30;2.60;;;25.70;55.90;;;;;;5093045;28;20436;-50
2022/06/23 10:52:53;;;;;;;2.93;2.10;;;25.70;56.60;;;;;;5093750;28;20506;-50
2022/06/23 10:55:47;;;;;;;5.23;2.13;;;25.80;56.30;;;;;;5075110;28;20455;-51
2022/06/23 10:58:33;;;;;;;2.60;1.97;;;25.80;56.80;;;;;;5091930;28;20456;-50
2022/06/23 11:01:12;;;;;;;4.47;2.40;;;25.80;56.30;;;;;;5093335;28;20435;-50
2022/06/23 11:03:58;;;;;;;4.20;2.60;;;25.50;55.90;;;;;;5093326;28;20814;-50
2022/06/23 11:06:44;;;;;;;4.40;2.57;;;25.90;53.80;;;;;;5074995;28;20468;-51
2022/06/23 11:09:32;;;;;;;2.50;1.90;;;26.00;53.50;;;;;;5074441;28;20460;-51
2022/06/23 11:12:10;;;;;;;5.22;2.20;;;26.00;53.70;;;;;;5079258;28;20948;-50
2022/06/23 11:14:59;;;;;;;3.85;2.00;;;26.20;52.90;;;;;;5090022;28;20429;-51
2022/06/23 11:17:35;;;;;;;7.10;1.70;;;26.60;52.00;;;;;;5092725;28;20325;-50
2022/06/23 11:20:14;;;;;;;2.20;2.00;;;26.40;52.40;;;;;;5096644;28;20505;-50
2022/06/23 11:22:48;;;;;;;7.37;1.43;;;26.40;52.40;;;;;;5114071;28;20427;-50
2022/06/23 11:25:26;;;;;;;3.47;1.93;;;26.30;52.10;;;;;;5113811;28;20432;-50
2022/06/23 11:28:16;;;;;;;5.00;2.00;;;26.30;51.80;;;;;;5113206;28;20431;-51
2022/06/23 11:30:54;;;;;;;2.83;1.87;;;26.20;51.90;;;;;;5094776;28;20905;-51
2022/06/23 11:33:40;;;;;;;4.57;1.70;;;26.20;52.20;;;;;;5113568;28;20439;-51
2022/06/23 11:36:23;;;;;;;2.80;1.80;;;26.20;52.40;;;;;;5113209;28;20461;-51
2022/06/23 11:39:09;;;;;;;3.00;2.23;;;26.20;52.70;;;;;;5091129;28;20452;-51
2022/06/23 11:41:52;;;;;;;4.47;2.53;;;26.20;52.80;;;;;;5092889;28;21025;-50
2022/06/23 11:44:29;;;;;;;7.00;2.00;;;26.20;52.90;;;;;;5093033;28;20458;-50
2022/06/23 11:47:01;;;;;;;4.90;2.10;;;26.30;53.30;;;;;;5092747;28;20464;-51
2022/06/23 11:49:40;;;;;;;4.80;2.20;;;26.30;53.30;;;;;;5088128;28;20456;-51
2022/06/23 11:52:33;;;;;;;3.40;1.97;;;26.30;53.70;;;;;;5092808;28;20987;-50
2022/06/23 11:55:21;;;;;;;7.07;2.10;;;26.40;53.00;;;;;;5091906;28;20892;-53
2022/06/23 11:58:13;;;;;;;2.67;1.80;;;26.50;52.70;;;;;;5088813;28;20460;-51
2022/06/23 12:00:53;;;;;;;3.73;2.20;;;26.40;52.80;;;;;;5072288;28;20444;-50
2022/06/23 12:03:37;;;;;;;7.93;1.97;;;26.40;53.00;;;;;;5071986;28;20425;-50
2022/06/23 12:06:12;;;;;;;5.50;2.30;;;26.50;52.30;;;;;;5071280;28;20516;-50
2022/06/23 12:08:55;;;;;;;7.63;1.97;;;26.50;52.70;;;;;;5071371;28;20436;-49
2022/06/23 12:11:24;;;;;;;3.07;1.93;;;26.50;52.90;;;;;;5071939;28;20505;-50
2022/06/23 12:13:51;;;;;;;6.80;2.20;;;26.60;52.80;;;;;;5071962;28;20426;-50
2022/06/23 12:16:19;;;;;;;3.20;2.30;;;26.60;52.70;;;;;;5085831;28;20484;-50
2022/06/23 12:18:49;;;;;;;5.40;2.20;;;26.70;52.70;;;;;;5092638;28;20429;-49
2022/06/23 12:21:26;;;;;;;3.30;2.40;;;26.70;52.70;;;;;;5091291;28;20485;-50
2022/06/23 12:23:59;;;;;;;3.83;1.90;;;26.50;52.30;;;;;;5083988;28;20456;-50
2022/06/23 12:26:31;;;;;;;5.77;2.37;;;26.70;52.50;;;;;;5071839;28;20803;-50
2022/06/23 12:29:04;;;;;;;4.73;2.20;;;26.80;52.50;;;;;;5085203;28;20448;-50
2022/06/23 12:31:41;;;;;;;4.97;2.27;;;26.70;52.50;;;;;;5091516;28;20979;-49
2022/06/23 12:34:17;;;;;;;6.23;2.17;;;26.80;52.30;;;;;;5091435;28;20441;-50
2022/06/23 12:36:54;;;;;;;3.40;2.07;;;26.80;52.20;;;;;;5090993;28;20472;-49
2022/06/23 12:39:29;;;;;;;3.30;2.03;;;26.80;52.20;;;;;;5091250;28;20440;-49
2022/06/23 12:42:03;;;;;;;2.50;2.10;;;26.90;52.20;;;;;;5085637;28;20917;-50
2022/06/23 12:44:38;;;;;;;3.80;2.50;;;26.90;52.40;;;;;;5091718;28;20441;-50
2022/06/23 12:47:15;;;;;;;6.27;1.80;;;27.00;52.10;;;;;;5091264;28;20480;-51
2022/06/23 12:50:08;;;;;;;4.13;2.77;;;27.00;52.20;;;;;;5091006;28;20425;-52
2022/06/23 12:52:46;;;;;;;4.03;2.40;;;27.00;52.60;;;;;;5070982;28;21020;-50
2022/06/23 12:55:30;;;;;;;2.60;2.20;;;27.00;52.60;;;;;;5071086;28;20543;-51
2022/06/23 12:58:17;;;;;;;3.60;2.17;;;27.00;52.40;;;;;;5070225;28;20545;-52
2022/06/23 13:00:57;;;;;;;3.50;2.00;;;27.10;52.70;;;;;;5075236;28;20905;-51
2022/06/23 13:03:29;;;;;;;2.87;2.07;;;27.10;52.90;;;;;;5091234;28;20513;-51
2022/06/23 13:06:09;;;;;;;2.47;2.27;;;26.60;52.50;;;;;;5091120;28;20448;-50
2022/06/23 13:08:41;;;;;;;14.03;3.13;;;27.20;52.40;;;;;;5091007;28;20468;-52
2022/06/23 13:11:15;;;;;;;3.37;2.40;;;27.20;52.60;;;;;;5091399;28;20950;-52
2022/06/23 13:13:50;;;;;;;2.33;2.10;;;27.20;50.70;;;;;;5091171;28;20567;-52
2022/06/23 13:16:21;;;;;;;3.40;1.80;;;27.20;51.50;;;;;;5089214;28;20837;-51
2022/06/23 13:18:53;;;;;;;3.90;2.50;;;27.20;51.40;;;;;;5090769;28;20933;-51
2022/06/23 13:21:25;;;;;;;3.00;2.40;;;27.30;51.60;;;;;;5088237;28;20468;-51
2022/06/23 13:23:57;;;;;;;3.10;2.50;;;27.30;51.80;;;;;;5090938;28;21156;-53
2022/06/23 13:26:26;;;;;;;3.23;2.50;;;27.30;51.70;;;;;;5090895;28;20449;-53
2022/06/23 13:29:01;;;;;;;3.40;2.37;;;27.50;51.90;;;;;;5090636;28;20844;-52
2022/06/23 13:31:35;;;;;;;7.23;2.00;;;27.30;51.50;;;;;;5086308;28;20540;-51
2022/06/23 13:34:05;;;;;;;4.53;2.10;;;27.40;50.50;;;;;;5079185;28;20822;-52
2022/06/23 13:36:40;;;;;;;2.93;1.80;;;27.40;50.50;;;;;;5071033;28;20990;-52
2022/06/23 13:39:19;;;;;;;3.40;1.83;;;27.50;50.00;;;;;;5087338;28;20432;-52
2022/06/23 13:41:52;;;;;;;4.17;2.33;;;27.50;49.80;;;;;;5090148;28;21007;-51